Time;durP1;ratioP1;P1;durP2;ratioP2;P2;SDS_P1;SDS_P2;PMS_P1;PMS_P2;Temp;Humidity;BMP_temperature;BMP_pressure;BME280_temperature;BME280_humidity;BME280_pressure;Samples;Min_cycle;Max_cycle;Signal;HPM_P1;HPM_P2
2022/01/31 00:01:15;;;;;;;7.32;5.40;;;1.50;99.90;;;;;;5059771;28;20256;-83
2022/01/31 00:03:42;;;;;;;9.43;6.05;;;1.50;99.90;;;;;;5038030;28;20256;-83
2022/01/31 00:06:09;;;;;;;11.30;6.47;;;1.60;99.90;;;;;;5044183;28;20210;-83
2022/01/31 00:08:37;;;;;;;5.50;4.75;;;1.50;99.90;;;;;;5056156;28;20212;-83
2022/01/31 00:11:03;;;;;;;16.45;6.18;;;1.50;99.90;;;;;;5057878;28;20575;-83
2022/01/31 00:13:35;;;;;;;7.28;5.65;;;1.70;99.90;;;;;;5057852;28;20206;-83
2022/01/31 00:16:02;;;;;;;9.98;6.60;;;1.80;99.90;;;;;;5063380;28;20213;-85
2022/01/31 00:18:29;;;;;;;6.32;5.57;;;1.90;99.90;;;;;;5062738;28;20270;-85
2022/01/31 00:20:56;;;;;;;8.18;5.95;;;1.80;99.90;;;;;;5063451;28;20199;-84
2022/01/31 00:23:24;;;;;;;13.73;7.25;;;1.80;99.90;;;;;;5066014;28;20297;-85
2022/01/31 00:25:52;;;;;;;9.75;5.55;;;1.80;99.90;;;;;;5061219;28;20210;-83
2022/01/31 00:28:19;;;;;;;14.20;6.47;;;1.90;99.90;;;;;;5055468;28;20201;-83
2022/01/31 00:30:47;;;;;;;8.50;6.60;;;1.90;99.90;;;;;;5055251;28;20199;-83
2022/01/31 00:33:14;;;;;;;8.43;5.75;;;2.00;99.90;;;;;;5062070;28;20222;-85
2022/01/31 00:35:40;;;;;;;7.75;5.75;;;2.00;99.90;;;;;;5063352;28;20202;-85
2022/01/31 00:38:07;;;;;;;6.90;4.60;;;2.10;99.90;;;;;;5063431;28;20236;-84
2022/01/31 00:40:35;;;;;;;10.88;5.90;;;2.20;99.90;;;;;;5062254;28;20203;-84
2022/01/31 00:43:03;;;;;;;7.00;5.45;;;2.20;99.90;;;;;;5059706;28;20221;-84
2022/01/31 00:45:32;;;;;;;5.75;5.25;;;2.20;99.90;;;;;;5060218;28;20859;-82
2022/01/31 00:48:03;;;;;;;11.25;5.63;;;1.90;99.90;;;;;;5056830;28;20206;-83
2022/01/31 00:50:36;;;;;;;10.82;6.68;;;1.80;99.90;;;;;;5056728;28;20232;-82
2022/01/31 00:53:03;;;;;;;7.03;5.03;;;1.80;99.90;;;;;;5057550;28;20218;-83
2022/01/31 00:55:30;;;;;;;6.75;6.13;;;1.90;99.90;;;;;;5059571;28;20212;-83
2022/01/31 00:57:57;;;;;;;8.43;5.57;;;2.00;99.90;;;;;;5060119;28;20199;-84
2022/01/31 01:00:25;;;;;;;6.07;5.38;;;2.10;99.90;;;;;;5059744;28;20209;-85
2022/01/31 01:02:52;;;;;;;11.85;7.55;;;2.10;99.90;;;;;;5059287;28;20234;-84
2022/01/31 01:05:19;;;;;;;8.27;6.85;;;2.20;99.90;;;;;;5059833;28;20634;-84
2022/01/31 01:07:46;;;;;;;8.68;7.00;;;2.20;99.90;;;;;;5062357;28;20211;-83
2022/01/31 01:10:14;;;;;;;9.02;5.53;;;2.20;99.90;;;;;;5060634;28;20238;-82
2022/01/31 01:12:40;;;;;;;10.18;5.78;;;2.20;99.90;;;;;;5061792;28;20221;-84
2022/01/31 01:15:08;;;;;;;7.63;5.82;;;2.10;99.90;;;;;;5067549;28;20207;-84
2022/01/31 01:17:36;;;;;;;18.77;6.70;;;2.10;99.90;;;;;;5065040;28;20211;-83
2022/01/31 01:20:04;;;;;;;9.85;5.88;;;2.10;99.90;;;;;;5061208;28;20672;-83
2022/01/31 01:22:31;;;;;;;11.07;5.80;;;2.20;99.90;;;;;;5058714;28;20238;-83
2022/01/31 01:24:59;;;;;;;8.98;6.20;;;2.10;99.90;;;;;;5058231;28;20214;-82
2022/01/31 01:27:25;;;;;;;13.27;6.72;;;2.10;99.90;;;;;;5058439;28;20207;-82
2022/01/31 01:29:52;;;;;;;8.40;5.97;;;2.10;99.90;;;;;;5063569;28;20219;-84
2022/01/31 01:32:19;;;;;;;9.10;5.22;;;2.00;99.90;;;;;;5064057;28;20747;-84
2022/01/31 01:34:47;;;;;;;8.68;6.82;;;2.00;99.90;;;;;;5062227;28;20255;-83
2022/01/31 01:37:13;;;;;;;5.82;4.70;;;2.10;99.90;;;;;;5063337;28;20213;-84
2022/01/31 01:39:41;;;;;;;9.32;6.05;;;2.10;99.90;;;;;;5065365;28;20212;-84
2022/01/31 01:42:08;;;;;;;8.80;4.78;;;2.20;99.90;;;;;;5061366;28;20261;-82
2022/01/31 01:44:46;;;;;;;8.13;6.00;;;2.10;99.90;;;;;;5059869;28;20214;-82
2022/01/31 01:47:15;;;;;;;11.05;4.90;;;2.10;99.90;;;;;;5059971;28;20209;-83
2022/01/31 01:49:42;;;;;;;9.57;5.45;;;2.10;99.90;;;;;;5060046;28;20238;-83
2022/01/31 01:52:11;;;;;;;9.18;6.15;;;2.20;99.90;;;;;;5058388;28;20279;-83
2022/01/31 01:54:38;;;;;;;7.10;5.47;;;2.20;99.90;;;;;;5057951;28;20695;-82
2022/01/31 01:57:05;;;;;;;7.75;6.40;;;2.30;99.90;;;;;;5058091;28;20625;-82
2022/01/31 01:59:34;;;;;;;15.85;5.63;;;2.40;99.90;;;;;;5062091;28;20211;-82
2022/01/31 02:02:02;;;;;;;6.53;5.25;;;2.40;99.90;;;;;;5062439;28;20224;-83
2022/01/31 02:04:29;;;;;;;16.48;6.57;;;2.40;99.90;;;;;;5067406;28;20202;-84
2022/01/31 02:06:56;;;;;;;8.60;6.05;;;2.40;99.90;;;;;;5065571;28;20209;-84
2022/01/31 02:09:27;;;;;;;4.53;2.70;;;2.40;99.90;;;;;;5063507;28;20207;-84
2022/01/31 02:11:54;;;;;;;14.85;5.32;;;2.30;99.90;;;;;;5060696;28;20243;-82
2022/01/31 02:14:21;;;;;;;11.13;4.20;;;2.40;99.90;;;;;;5060378;28;20628;-82
2022/01/31 02:16:49;;;;;;;5.95;5.30;;;2.40;99.90;;;;;;5067941;28;20668;-82
2022/01/31 02:19:16;;;;;;;9.52;6.13;;;2.40;99.90;;;;;;5064768;28;20682;-82
2022/01/31 02:21:46;;;;;;;6.90;4.30;;;2.40;99.90;;;;;;5064906;28;20227;-84
2022/01/31 02:24:13;;;;;;;10.40;5.28;;;2.40;99.90;;;;;;5065446;28;20214;-82
2022/01/31 02:26:40;;;;;;;7.13;4.55;;;2.40;99.90;;;;;;5059823;28;20198;-82
2022/01/31 02:29:11;;;;;;;8.73;4.93;;;2.40;99.90;;;;;;5057836;28;20270;-82
2022/01/31 02:31:38;;;;;;;10.30;6.95;;;2.40;99.90;;;;;;5057166;28;20219;-82
2022/01/31 02:34:05;;;;;;;8.30;5.63;;;2.20;99.90;;;;;;5061096;28;20203;-84
2022/01/31 02:36:31;;;;;;;8.60;5.40;;;2.20;99.90;;;;;;5065920;28;20195;-84
2022/01/31 02:38:59;;;;;;;8.23;6.18;;;2.30;99.90;;;;;;5065098;28;20208;-84
2022/01/31 02:41:27;;;;;;;7.55;5.25;;;2.30;99.90;;;;;;5060100;28;20225;-82
2022/01/31 02:43:55;;;;;;;11.00;6.15;;;2.20;99.90;;;;;;5057004;28;20233;-82
2022/01/31 02:46:24;;;;;;;15.63;5.82;;;2.10;99.90;;;;;;5057063;28;20213;-82
2022/01/31 02:48:53;;;;;;;8.48;5.65;;;2.20;99.90;;;;;;5065161;28;20273;-84
2022/01/31 02:51:22;;;;;;;6.50;4.72;;;2.20;99.90;;;;;;5064670;28;20209;-84
2022/01/31 02:53:49;;;;;;;17.80;6.25;;;2.20;99.90;;;;;;5063791;28;20205;-82
2022/01/31 02:56:17;;;;;;;12.57;5.20;;;2.20;99.90;;;;;;5058775;28;20199;-82
2022/01/31 02:58:43;;;;;;;5.63;4.80;;;2.30;99.90;;;;;;5065535;28;20242;-85
2022/01/31 03:01:11;;;;;;;9.77;6.10;;;2.30;99.90;;;;;;5067589;28;20212;-84
2022/01/31 03:03:38;;;;;;;6.88;5.20;;;2.30;99.90;;;;;;5067091;28;20253;-84
2022/01/31 03:06:05;;;;;;;7.28;5.45;;;2.20;99.90;;;;;;5064116;28;20195;-84
2022/01/31 03:08:33;;;;;;;6.82;5.50;;;2.30;99.90;;;;;;5062967;28;20210;-83
2022/01/31 03:11:00;;;;;;;9.30;4.32;;;2.30;99.90;;;;;;5060779;28;20406;-82
2022/01/31 03:13:28;;;;;;;9.68;6.00;;;2.30;99.90;;;;;;5061430;28;20299;-84
2022/01/31 03:15:56;;;;;;;10.00;4.50;;;2.30;99.90;;;;;;5058512;28;20229;-82
2022/01/31 03:18:23;;;;;;;11.18;5.05;;;2.30;99.90;;;;;;5057240;28;20264;-82
2022/01/31 03:20:50;;;;;;;5.32;4.45;;;2.30;99.90;;;;;;5057937;28;20205;-82
2022/01/31 03:23:18;;;;;;;15.30;4.95;;;2.30;99.90;;;;;;5057724;28;20290;-83
2022/01/31 03:25:45;;;;;;;9.85;5.95;;;2.30;99.90;;;;;;5058548;28;20202;-82
2022/01/31 03:28:11;;;;;;;6.53;5.60;;;2.20;99.90;;;;;;5057845;28;20201;-82
2022/01/31 03:30:39;;;;;;;6.85;5.45;;;2.30;99.90;;;;;;5057704;28;20231;-82
2022/01/31 03:33:06;;;;;;;10.70;5.00;;;2.30;99.90;;;;;;5057544;28;20218;-82
2022/01/31 03:35:33;;;;;;;5.75;5.07;;;2.30;99.90;;;;;;5057600;28;20231;-82
2022/01/31 03:38:00;;;;;;;8.30;5.47;;;2.50;99.90;;;;;;5057854;28;20603;-82
2022/01/31 03:40:27;;;;;;;9.32;4.13;;;2.50;99.90;;;;;;5057640;28;20707;-81
2022/01/31 03:42:53;;;;;;;7.03;5.40;;;2.40;99.90;;;;;;5057343;28;20229;-82
2022/01/31 03:45:20;;;;;;;10.57;5.93;;;2.40;99.90;;;;;;5057913;28;20210;-82
2022/01/31 03:47:48;;;;;;;10.25;5.47;;;2.40;99.90;;;;;;5057654;28;20201;-82
2022/01/31 03:50:17;;;;;;;11.90;6.05;;;2.40;99.90;;;;;;5057292;28;20213;-82
2022/01/31 03:52:44;;;;;;;6.85;6.18;;;2.40;99.90;;;;;;5057322;28;20229;-82
2022/01/31 03:55:11;;;;;;;8.32;4.97;;;2.40;99.90;;;;;;5057543;28;20214;-82
2022/01/31 03:57:38;;;;;;;9.60;4.57;;;2.40;99.90;;;;;;5056760;28;20276;-82
2022/01/31 04:00:07;;;;;;;9.73;5.63;;;2.40;99.90;;;;;;5057112;28;20203;-82
2022/01/31 04:02:33;;;;;;;6.32;5.75;;;2.40;99.90;;;;;;5056853;28;20230;-82
2022/01/31 04:05:02;;;;;;;5.88;4.38;;;2.50;99.90;;;;;;5057306;28;20632;-82
2022/01/31 04:07:28;;;;;;;8.10;5.63;;;2.60;99.90;;;;;;5057379;28;20195;-82
2022/01/31 04:09:55;;;;;;;5.88;4.80;;;2.70;99.90;;;;;;5057061;28;20215;-82
2022/01/31 04:12:22;;;;;;;10.23;5.25;;;2.70;99.90;;;;;;5056086;28;20223;-82
2022/01/31 04:14:48;;;;;;;7.60;4.80;;;2.70;99.90;;;;;;5057082;28;20232;-82
2022/01/31 04:17:19;;;;;;;6.60;5.18;;;2.70;99.90;;;;;;5056665;28;20200;-82
2022/01/31 04:19:45;;;;;;;7.20;6.50;;;2.70;99.90;;;;;;5056222;28;20210;-82
2022/01/31 04:22:16;;;;;;;4.68;4.32;;;2.70;99.90;;;;;;5056743;28;20227;-82
2022/01/31 04:24:46;;;;;;;9.20;4.35;;;2.70;99.90;;;;;;5057436;28;20208;-82
2022/01/31 04:27:17;;;;;;;8.30;5.93;;;2.80;99.90;;;;;;5057175;28;20202;-82
2022/01/31 04:29:46;;;;;;;8.85;5.40;;;2.90;99.90;;;;;;5056838;28;20203;-82
2022/01/31 04:32:12;;;;;;;11.73;5.53;;;2.90;99.90;;;;;;5056541;28;20220;-82
2022/01/31 04:34:40;;;;;;;5.72;4.82;;;2.90;99.90;;;;;;5056404;28;20212;-82
2022/01/31 04:37:07;;;;;;;4.60;4.10;;;2.90;99.90;;;;;;5056359;28;20207;-82
2022/01/31 04:39:35;;;;;;;6.15;3.97;;;2.90;99.90;;;;;;5055117;28;20213;-82
2022/01/31 04:42:02;;;;;;;9.00;5.20;;;2.80;99.90;;;;;;5053649;28;20227;-82
2022/01/31 04:44:29;;;;;;;7.65;5.38;;;2.90;99.90;;;;;;5055808;28;20224;-82
2022/01/31 04:46:55;;;;;;;6.07;5.47;;;3.00;99.90;;;;;;5056224;28;20246;-82
2022/01/31 04:49:22;;;;;;;10.32;6.10;;;3.10;99.90;;;;;;5056535;28;20205;-82
2022/01/31 04:51:51;;;;;;;7.55;4.82;;;3.00;99.90;;;;;;5056632;28;20231;-82
2022/01/31 04:54:18;;;;;;;5.50;4.45;;;3.00;99.90;;;;;;5056734;28;20294;-82
2022/01/31 04:56:46;;;;;;;5.45;4.28;;;3.10;99.90;;;;;;5056684;28;20203;-82
2022/01/31 04:59:13;;;;;;;4.95;4.45;;;3.00;99.90;;;;;;5056896;28;20218;-82
2022/01/31 05:01:42;;;;;;;13.95;5.03;;;3.00;99.90;;;;;;5056248;28;20242;-82
2022/01/31 05:04:09;;;;;;;6.03;5.40;;;3.10;99.90;;;;;;5056211;28;20227;-83
2022/01/31 05:06:38;;;;;;;7.18;4.25;;;3.10;99.90;;;;;;5056277;28;20260;-83
2022/01/31 05:09:05;;;;;;;4.70;3.97;;;3.10;99.90;;;;;;5056629;28;20263;-84
2022/01/31 05:11:33;;;;;;;7.00;4.00;;;3.10;99.90;;;;;;5055590;28;20737;-82
2022/01/31 05:14:01;;;;;;;4.40;4.00;;;3.20;99.90;;;;;;5056309;28;20211;-83
2022/01/31 05:16:28;;;;;;;4.57;3.72;;;3.30;99.90;;;;;;5056280;28;20247;-83
2022/01/31 05:18:54;;;;;;;4.68;4.25;;;3.30;99.90;;;;;;5056711;28;20239;-82
2022/01/31 05:21:21;;;;;;;7.28;3.63;;;3.20;99.90;;;;;;5055791;28;20232;-83
2022/01/31 05:23:49;;;;;;;4.28;3.85;;;3.20;99.90;;;;;;5057575;28;20223;-83
2022/01/31 05:26:16;;;;;;;5.00;4.28;;;3.10;99.90;;;;;;5057022;28;20215;-83
2022/01/31 05:28:43;;;;;;;4.18;3.40;;;3.20;99.90;;;;;;5057325;28;20660;-82
2022/01/31 05:31:11;;;;;;;4.22;3.92;;;3.10;99.90;;;;;;5057198;28;20221;-83
2022/01/31 05:33:37;;;;;;;4.82;4.00;;;3.20;99.90;;;;;;5058062;28;20227;-83
2022/01/31 05:36:05;;;;;;;5.15;4.70;;;3.20;99.90;;;;;;5055719;28;20232;-83
2022/01/31 05:38:37;;;;;;;4.10;2.47;;;3.20;99.90;;;;;;5056265;28;20291;-82
2022/01/31 05:41:07;;;;;;;5.53;4.35;;;3.30;99.90;;;;;;5055838;28;20204;-83
2022/01/31 05:43:35;;;;;;;3.45;3.15;;;3.30;99.90;;;;;;5058583;28;20224;-83
2022/01/31 05:46:02;;;;;;;3.60;3.25;;;3.40;99.90;;;;;;5058522;28;20232;-84
2022/01/31 05:48:30;;;;;;;7.53;3.55;;;3.20;99.90;;;;;;5058970;28;20593;-83
2022/01/31 05:50:57;;;;;;;6.22;2.83;;;3.30;99.90;;;;;;5057678;28;20201;-83
2022/01/31 05:53:24;;;;;;;4.60;4.15;;;3.40;99.90;;;;;;5058678;28;20223;-83
2022/01/31 05:55:50;;;;;;;3.85;3.45;;;3.50;99.90;;;;;;5060521;28;20289;-83
2022/01/31 05:58:17;;;;;;;3.30;2.60;;;3.50;99.90;;;;;;5060339;28;20208;-83
2022/01/31 06:00:44;;;;;;;3.60;3.05;;;3.50;99.90;;;;;;5060913;28;20295;-83
2022/01/31 06:03:14;;;;;;;5.68;3.70;;;3.40;99.90;;;;;;5095640;22;20212;-85
2022/01/31 06:05:42;;;;;;;3.78;3.08;;;3.50;99.90;;;;;;5069918;28;20205;-85
2022/01/31 06:08:09;;;;;;;4.57;3.42;;;3.50;99.90;;;;;;5057142;28;20204;-85
2022/01/31 06:10:42;;;;;;;7.32;3.60;;;3.50;99.90;;;;;;5064163;28;20465;-85
2022/01/31 06:13:08;;;;;;;4.50;2.58;;;3.50;99.90;;;;;;5077888;28;20227;-85
2022/01/31 06:15:35;;;;;;;5.15;2.53;;;3.50;99.90;;;;;;5076663;28;20652;-84
2022/01/31 06:18:02;;;;;;;6.43;3.95;;;3.40;99.90;;;;;;5067874;28;20210;-84
2022/01/31 06:20:29;;;;;;;2.53;2.42;;;3.40;99.90;;;;;;5057678;28;20218;-84
2022/01/31 06:22:57;;;;;;;4.70;3.22;;;3.50;99.90;;;;;;5057262;28;20235;-85
2022/01/31 06:25:24;;;;;;;2.67;2.10;;;3.50;99.90;;;;;;5056793;28;20209;-85
2022/01/31 06:27:51;;;;;;;7.20;4.10;;;3.40;99.90;;;;;;5057692;28;20211;-84
2022/01/31 06:30:18;;;;;;;3.60;3.35;;;3.30;99.90;;;;;;5057184;28;20235;-84
2022/01/31 06:32:45;;;;;;;8.98;4.70;;;3.20;99.90;;;;;;5057806;28;20595;-84
2022/01/31 06:35:12;;;;;;;3.90;3.60;;;3.10;99.90;;;;;;5057367;28;20205;-84
2022/01/31 06:37:39;;;;;;;3.42;2.80;;;3.10;99.90;;;;;;5060067;28;20210;-84
2022/01/31 06:40:08;;;;;;;7.32;6.80;;;3.10;99.90;;;;;;5074557;28;20220;-84
2022/01/31 06:42:35;;;;;;;5.22;3.55;;;3.10;99.90;;;;;;5077958;28;20210;-84
2022/01/31 06:45:02;;;;;;;4.13;3.75;;;3.10;99.90;;;;;;5072300;28;20601;-84
2022/01/31 06:47:29;;;;;;;3.67;3.38;;;3.00;99.90;;;;;;5061508;28;20615;-84
2022/01/31 06:49:56;;;;;;;6.15;3.75;;;2.90;99.90;;;;;;5059892;28;20209;-84
2022/01/31 06:52:23;;;;;;;9.60;3.38;;;2.90;99.90;;;;;;5055461;28;20314;-84
2022/01/31 06:54:55;;;;;;;10.07;4.95;;;2.90;99.90;;;;;;5058732;28;20198;-84
2022/01/31 06:57:30;;;;;;;7.90;4.55;;;2.90;99.90;;;;;;5057876;28;20247;-84
2022/01/31 06:59:57;;;;;;;4.88;4.43;;;2.90;99.90;;;;;;5061145;28;20253;-84
2022/01/31 07:02:24;;;;;;;6.68;4.90;;;2.90;99.90;;;;;;5059231;28;20233;-84
2022/01/31 07:04:54;;;;;;;8.65;4.38;;;2.90;99.90;;;;;;5059089;28;20220;-84
2022/01/31 07:07:20;;;;;;;5.80;5.07;;;2.80;99.90;;;;;;5060850;28;20211;-84
2022/01/31 07:09:50;;;;;;;4.63;2.85;;;3.00;99.90;;;;;;5060131;28;20297;-84
2022/01/31 07:12:18;;;;;;;15.65;5.25;;;2.90;99.90;;;;;;5059644;28;20314;-84
2022/01/31 07:14:46;;;;;;;8.23;5.50;;;2.90;99.90;;;;;;5061176;28;20219;-84
2022/01/31 07:17:13;;;;;;;9.48;4.90;;;3.00;99.90;;;;;;5061268;28;20218;-84
2022/01/31 07:19:41;;;;;;;9.85;3.28;;;3.00;99.90;;;;;;5060680;28;20209;-84
2022/01/31 07:22:11;;;;;;;7.35;4.32;;;2.90;99.90;;;;;;5061408;28;20292;-83
2022/01/31 07:24:52;;;;;;;6.95;4.65;;;2.80;99.90;;;;;;5062531;28;20255;-83
2022/01/31 07:27:21;;;;;;;6.28;5.68;;;2.90;99.90;;;;;;5063484;28;20204;-84
2022/01/31 07:29:58;;;;;;;7.20;3.83;;;2.90;99.90;;;;;;5061483;28;20211;-83
2022/01/31 07:32:32;;;;;;;8.15;4.45;;;2.80;99.90;;;;;;5060446;28;20230;-83
2022/01/31 07:34:59;;;;;;;6.10;3.80;;;2.80;99.90;;;;;;5057180;28;20227;-83
2022/01/31 07:37:27;;;;;;;8.95;4.35;;;2.80;99.90;;;;;;5047257;28;20205;-83
2022/01/31 07:39:57;;;;;;;3.85;2.47;;;2.90;99.90;;;;;;5049915;28;20206;-83
2022/01/31 07:42:23;;;;;;;6.28;5.00;;;2.90;99.90;;;;;;5052500;28;20218;-83
2022/01/31 07:44:54;;;;;;;6.30;5.43;;;2.80;99.90;;;;;;5052396;28;20232;-82
2022/01/31 07:47:21;;;;;;;6.78;4.80;;;2.90;99.90;;;;;;5060471;28;20209;-82
2022/01/31 07:49:47;;;;;;;6.97;4.10;;;2.80;99.90;;;;;;5052725;28;20215;-82
2022/01/31 07:52:14;;;;;;;3.17;2.92;;;2.90;99.90;;;;;;5053045;28;20235;-82
2022/01/31 07:54:43;;;;;;;5.65;4.88;;;2.80;99.90;;;;;;5050012;28;20570;-83
2022/01/31 07:57:10;;;;;;;11.32;2.95;;;2.90;99.90;;;;;;5044552;28;20290;-78
2022/01/31 07:59:37;;;;;;;3.72;3.25;;;2.90;99.90;;;;;;5053084;28;20211;-77
2022/01/31 08:02:05;;;;;;;12.02;3.65;;;2.80;99.90;;;;;;5052467;28;20232;-77
2022/01/31 08:04:31;;;;;;;4.22;3.10;;;2.80;99.90;;;;;;5052255;28;20229;-77
2022/01/31 08:06:58;;;;;;;6.30;3.05;;;2.80;99.90;;;;;;5052298;28;20196;-77
2022/01/31 08:09:25;;;;;;;4.05;3.15;;;2.90;99.90;;;;;;5052786;28;20218;-77
2022/01/31 08:11:51;;;;;;;2.45;2.25;;;2.80;99.90;;;;;;5051508;28;20216;-79
2022/01/31 08:14:19;;;;;;;3.47;2.65;;;2.90;99.90;;;;;;5050953;28;20213;-78
2022/01/31 08:16:46;;;;;;;2.65;2.42;;;2.90;99.90;;;;;;5047537;28;20200;-77
2022/01/31 08:19:14;;;;;;;2.63;2.40;;;2.90;99.90;;;;;;5034787;28;20215;-78
2022/01/31 08:21:40;;;;;;;2.53;2.28;;;2.80;99.90;;;;;;5045309;28;20209;-78
2022/01/31 08:24:08;;;;;;;2.13;1.98;;;2.90;99.90;;;;;;5052694;28;20236;-78
2022/01/31 08:26:35;;;;;;;11.60;3.30;;;2.90;99.90;;;;;;5034675;28;20205;-78
2022/01/31 08:29:05;;;;;;;2.50;2.17;;;3.00;99.90;;;;;;5052079;28;20212;-77
2022/01/31 08:31:34;;;;;;;1.40;1.05;;;3.00;99.90;;;;;;5055308;28;20207;-77
2022/01/31 08:34:17;;;;;;;1.60;1.50;;;3.00;99.90;;;;;;5057194;28;20281;-82
2022/01/31 08:36:45;;;;;;;6.70;2.10;;;3.10;99.90;;;;;;5057510;28;20705;-79
2022/01/31 08:39:17;;;;;;;4.22;2.10;;;2.90;99.90;;;;;;5057256;28;20215;-80
2022/01/31 08:41:45;;;;;;;2.30;2.20;;;2.90;99.90;;;;;;5056526;28;20204;-79
2022/01/31 08:44:14;;;;;;;1.90;1.80;;;3.00;99.90;;;;;;5057883;28;20453;-79
2022/01/31 08:46:42;;;;;;;1.50;1.40;;;3.00;99.90;;;;;;5056364;28;20215;-80
2022/01/31 08:49:09;;;;;;;1.25;1.20;;;3.10;99.90;;;;;;5044855;28;20307;-80
2022/01/31 08:51:36;;;;;;;0.82;0.82;;;3.00;99.90;;;;;;5056741;28;20235;-80
2022/01/31 08:54:06;;;;;;;1.33;1.23;;;3.10;99.90;;;;;;5057534;28;20223;-79
2022/01/31 08:56:35;;;;;;;2.13;1.85;;;3.20;99.90;;;;;;5059117;28;20271;-79
2022/01/31 08:59:03;;;;;;;1.13;0.75;;;3.30;99.90;;;;;;5058801;28;20249;-80
2022/01/31 09:01:30;;;;;;;2.10;1.45;;;3.30;99.90;;;;;;5058134;28;20625;-80
2022/01/31 09:04:03;;;;;;;1.60;1.20;;;3.40;99.90;;;;;;5057382;28;20236;-79
2022/01/31 09:06:32;;;;;;;1.23;1.10;;;3.40;99.90;;;;;;5057945;28;20308;-78
2022/01/31 09:09:00;;;;;;;1.58;1.10;;;3.50;99.90;;;;;;5057758;28;20215;-78
2022/01/31 09:11:29;;;;;;;1.20;1.10;;;3.60;99.90;;;;;;5058224;28;20205;-80
2022/01/31 09:13:56;;;;;;;2.78;1.60;;;3.70;99.90;;;;;;5056394;28;20642;-79
2022/01/31 09:16:23;;;;;;;1.85;1.20;;;3.80;99.90;;;;;;5055410;28;20212;-80
2022/01/31 09:18:50;;;;;;;2.75;1.60;;;3.80;99.90;;;;;;5055355;28;20675;-80
2022/01/31 09:21:17;;;;;;;3.25;1.75;;;3.90;99.90;;;;;;5055049;28;20215;-79
2022/01/31 09:23:44;;;;;;;1.23;1.20;;;4.10;99.90;;;;;;5056624;28;20234;-80
2022/01/31 09:26:10;;;;;;;1.67;1.35;;;4.00;99.90;;;;;;5055229;28;20207;-80
2022/01/31 09:28:38;;;;;;;2.53;1.42;;;4.20;99.90;;;;;;5058544;28;20577;-79
2022/01/31 09:31:05;;;;;;;2.05;1.30;;;4.30;99.90;;;;;;5061152;28;20212;-81
2022/01/31 09:33:32;;;;;;;4.93;2.05;;;4.50;99.90;;;;;;5059886;28;20272;-80
2022/01/31 09:35:59;;;;;;;2.83;2.63;;;4.70;99.90;;;;;;5059398;28;20208;-80
2022/01/31 09:38:26;;;;;;;2.45;1.80;;;4.80;99.90;;;;;;5059760;28;20205;-80
2022/01/31 09:40:53;;;;;;;1.20;0.85;;;5.00;99.90;;;;;;5060884;28;20213;-81
2022/01/31 09:46:45;;;;;;;0.85;0.85;;;4.80;99.90;;;;;;5044863;28;20276;-82
2022/01/31 09:49:13;;;;;;;0.90;0.90;;;4.70;99.90;;;;;;5043501;28;20214;-79
2022/01/31 09:51:40;;;;;;;0.93;0.77;;;4.60;99.90;;;;;;5042092;28;20214;-79
2022/01/31 09:54:07;;;;;;;1.33;1.13;;;4.50;99.90;;;;;;5050602;28;20202;-80
2022/01/31 09:57:20;;;;;;;2.53;1.58;;;4.60;99.90;;;;;;5063440;28;20212;-83
2022/01/31 09:59:47;;;;;;;1.38;0.85;;;4.70;99.90;;;;;;5058010;28;20690;-80
2022/01/31 10:02:15;;;;;;;2.88;1.40;;;4.70;99.90;;;;;;5056827;28;20808;-79
2022/01/31 10:04:45;;;;;;;3.92;3.65;;;4.70;99.90;;;;;;5057139;28;20223;-79
2022/01/31 10:07:14;;;;;;;3.28;1.27;;;4.70;99.90;;;;;;5057805;28;20209;-80
2022/01/31 10:09:46;;;;;;;0.98;0.77;;;4.70;99.90;;;;;;5057168;28;20259;-80
2022/01/31 10:12:24;;;;;;;1.30;1.00;;;4.70;99.90;;;;;;5041636;28;20226;-80
2022/01/31 10:17:38;;;;;;;1.90;1.35;;;4.60;99.90;;;;;;5052657;28;20285;-80
2022/01/31 10:20:07;;;;;;;2.00;1.75;;;4.60;99.90;;;;;;5058950;28;20211;-80
2022/01/31 10:22:38;;;;;;;0.82;0.82;;;4.50;99.90;;;;;;5059559;28;20230;-80
2022/01/31 10:25:09;;;;;;;4.40;1.73;;;4.50;99.90;;;;;;5059000;28;20264;-81
2022/01/31 10:27:37;;;;;;;1.20;1.15;;;4.60;99.90;;;;;;5059351;28;20205;-81
2022/01/31 10:30:10;;;;;;;2.80;1.50;;;4.70;99.90;;;;;;5059286;28;20205;-78
2022/01/31 10:32:40;;;;;;;1.10;0.70;;;4.70;99.90;;;;;;5058800;28;20276;-79
2022/01/31 10:35:09;;;;;;;1.88;1.77;;;4.70;99.90;;;;;;5057483;28;20206;-79
2022/01/31 10:37:39;;;;;;;1.90;1.30;;;4.80;99.90;;;;;;5058781;28;20225;-81
2022/01/31 10:45:51;;;;;;;2.53;0.60;;;4.90;99.90;;;;;;5073796;28;20235;-81
2022/01/31 10:54:03;;;;;;;1.45;1.38;;;5.10;99.90;;;;;;5078187;28;20221;-79
2022/01/31 10:56:41;;;;;;;8.35;3.17;;;5.10;99.90;;;;;;5078255;28;20174;-81
2022/01/31 10:59:11;;;;;;;2.05;1.65;;;5.20;99.90;;;;;;5062339;28;20189;-80
2022/01/31 11:08:37;;;;;;;2.00;1.88;;;5.20;99.90;;;;;;4174500;26;20275;-82
2022/01/31 11:11:05;;;;;;;3.95;1.65;;;5.10;99.90;;;;;;5041823;28;20206;-83
2022/01/31 11:13:35;;;;;;;1.35;1.25;;;5.00;99.90;;;;;;5070243;28;20229;-80
2022/01/31 11:16:09;;;;;;;1.25;1.15;;;4.90;99.90;;;;;;5074472;28;20249;-81
2022/01/31 11:18:37;;;;;;;2.17;1.73;;;4.90;99.90;;;;;;5066275;28;20202;-81
2022/01/31 11:21:06;;;;;;;3.20;1.42;;;4.90;99.90;;;;;;5061193;28;20241;-80
2022/01/31 11:23:39;;;;;;;0.82;0.82;;;4.80;99.90;;;;;;5059073;28;20707;-81
2022/01/31 11:26:10;;;;;;;1.50;1.40;;;4.80;99.90;;;;;;5059962;28;20255;-82
2022/01/31 11:29:18;;;;;;;1.23;1.20;;;4.90;99.90;;;;;;5059657;28;20233;-82
2022/01/31 11:32:28;;;;;;;1.35;1.25;;;5.00;99.90;;;;;;5056513;28;20283;-83
2022/01/31 11:34:56;;;;;;;2.92;1.33;;;5.00;99.90;;;;;;5061306;28;20211;-81
2022/01/31 11:37:25;;;;;;;3.50;1.10;;;4.70;99.90;;;;;;5045115;28;20210;-81
2022/01/31 11:39:57;;;;;;;1.30;1.20;;;4.60;99.90;;;;;;5059716;28;20201;-81
2022/01/31 11:42:24;;;;;;;1.42;1.33;;;4.60;99.90;;;;;;5057659;28;20234;-81
2022/01/31 11:44:58;;;;;;;2.75;1.02;;;4.40;99.90;;;;;;5039652;28;20233;-80
2022/01/31 11:47:26;;;;;;;0.90;0.90;;;4.30;99.90;;;;;;5043329;28;20221;-80
2022/01/31 11:49:55;;;;;;;1.27;1.27;;;4.20;99.90;;;;;;5057670;28;20659;-80
2022/01/31 11:52:23;;;;;;;3.88;1.00;;;4.20;99.90;;;;;;5062330;28;20228;-81
2022/01/31 11:54:53;;;;;;;3.85;1.08;;;4.20;99.90;;;;;;5062838;28;20198;-81
2022/01/31 11:57:22;;;;;;;1.05;0.95;;;4.30;99.90;;;;;;5062387;28;20231;-81
2022/01/31 11:59:54;;;;;;;0.85;0.85;;;4.30;99.90;;;;;;5061827;28;20211;-79
2022/01/31 12:04:50;;;;;;;0.70;0.70;;;4.20;99.90;;;;;;5090617;28;20232;-81
2022/01/31 12:07:36;;;;;;;2.13;1.27;;;4.10;99.90;;;;;;5093731;28;20205;-79
2022/01/31 12:10:05;;;;;;;1.10;1.00;;;4.10;99.90;;;;;;5105978;28;20205;-82
2022/01/31 12:12:43;;;;;;;1.27;1.17;;;4.00;99.90;;;;;;5102310;28;20719;-80
2022/01/31 12:15:55;;;;;;;1.45;1.35;;;4.00;99.90;;;;;;5086980;28;20202;-79
2022/01/31 12:18:54;;;;;;;1.38;1.27;;;4.00;99.90;;;;;;5086692;28;20214;-80
2022/01/31 12:24:23;;;;;;;4.90;1.08;;;3.90;99.90;;;;;;5083984;28;20263;-82
2022/01/31 12:26:54;;;;;;;1.27;1.17;;;3.90;99.90;;;;;;5084261;28;20228;-80
2022/01/31 12:29:24;;;;;;;0.70;0.70;;;3.80;99.90;;;;;;5084795;28;20207;-80
2022/01/31 12:31:54;;;;;;;2.65;1.90;;;3.80;99.90;;;;;;5084895;28;20246;-82
2022/01/31 12:34:41;;;;;;;3.38;1.30;;;3.70;99.90;;;;;;5085242;28;20231;-81
2022/01/31 12:37:23;;;;;;;1.75;1.65;;;3.70;99.90;;;;;;5085576;28;20207;-81
2022/01/31 12:40:02;;;;;;;0.93;0.93;;;3.70;99.90;;;;;;5085438;28;20205;-81
2022/01/31 12:42:57;;;;;;;1.17;1.15;;;3.70;99.90;;;;;;5081528;28;20200;-81
2022/01/31 12:45:33;;;;;;;2.45;1.60;;;3.70;99.90;;;;;;5077301;28;20242;-81
2022/01/31 12:48:20;;;;;;;0.70;0.70;;;3.70;99.90;;;;;;5080861;28;20206;-82
2022/01/31 12:51:04;;;;;;;1.67;1.58;;;3.70;99.90;;;;;;5082377;28;20212;-80
2022/01/31 12:53:45;;;;;;;3.40;3.20;;;3.70;99.90;;;;;;5081295;28;20227;-81
2022/01/31 12:56:19;;;;;;;2.28;1.52;;;3.70;99.90;;;;;;5081649;28;20250;-81
2022/01/31 12:58:49;;;;;;;1.63;1.33;;;3.70;99.90;;;;;;5082002;28;20220;-81
2022/01/31 13:01:20;;;;;;;5.78;1.73;;;3.60;99.90;;;;;;5083324;28;20209;-81
2022/01/31 13:03:51;;;;;;;4.80;1.92;;;3.60;99.90;;;;;;5087352;28;20239;-81
2022/01/31 13:06:36;;;;;;;3.25;1.38;;;3.60;99.90;;;;;;5090309;28;20232;-81
2022/01/31 13:09:10;;;;;;;1.95;1.77;;;3.50;99.90;;;;;;5094621;28;20215;-81
2022/01/31 13:11:37;;;;;;;2.42;1.40;;;3.40;99.90;;;;;;5095179;28;20215;-80
2022/01/31 13:14:08;;;;;;;6.60;1.33;;;3.40;99.90;;;;;;5093985;28;20232;-81
2022/01/31 13:17:05;;;;;;;4.68;1.95;;;3.40;99.90;;;;;;5093059;28;20309;-80
2022/01/31 13:19:34;;;;;;;1.77;1.10;;;3.40;99.90;;;;;;5089371;28;20211;-83
2022/01/31 13:22:05;;;;;;;2.45;1.60;;;3.40;99.90;;;;;;5092303;28;20212;-82
2022/01/31 13:24:37;;;;;;;2.15;1.17;;;3.40;99.90;;;;;;5088032;28;20291;-82
2022/01/31 13:27:06;;;;;;;1.75;1.27;;;3.30;99.90;;;;;;5087512;28;20226;-81
2022/01/31 13:29:36;;;;;;;3.75;1.38;;;3.30;99.90;;;;;;5086824;28;20589;-81
2022/01/31 13:32:28;;;;;;;4.53;2.63;;;3.30;99.90;;;;;;5086216;28;20206;-82
2022/01/31 13:34:57;;;;;;;3.35;1.60;;;3.40;99.90;;;;;;5085668;28;20218;-82
2022/01/31 13:37:42;;;;;;;2.63;1.55;;;3.30;99.90;;;;;;5085270;28;20208;-81